Time;durP1;ratioP1;P1;durP2;ratioP2;P2;SDS_P1;SDS_P2;PMS_P1;PMS_P2;Temp;Humidity;BMP_temperature;BMP_pressure;BME280_temperature;BME280_humidity;BME280_pressure;Samples;Min_cycle;Max_cycle;Signal;HPM_P1;HPM_P2
2024/01/04 00:00:51;;;;;;;7.50;3.10;;;;;;;8.16;100.00;96909.81;109489;1251;59281;-75
2024/01/04 00:03:38;;;;;;;4.70;2.70;;;;;;;8.19;100.00;96908.08;109390;1251;58964;-74
2024/01/04 00:06:04;;;;;;;5.50;2.90;;;;;;;8.23;100.00;96902.64;109485;1251;67269;-74
2024/01/04 00:08:31;;;;;;;6.90;2.70;;;;;;;8.24;100.00;96897.70;109536;1251;60162;-74
2024/01/04 00:10:58;;;;;;;5.60;2.70;;;;;;;8.24;100.00;96897.20;109483;1251;65074;-74
2024/01/04 00:13:24;;;;;;;4.40;2.60;;;;;;;8.23;100.00;96899.04;109467;1251;58914;-74
2024/01/04 00:15:51;;;;;;;4.40;2.10;;;;;;;8.22;100.00;96900.21;109534;1251;59754;-74
2024/01/04 00:18:18;;;;;;;5.90;2.90;;;;;;;8.20;100.00;96889.77;109515;1251;67222;-75
2024/01/04 00:20:44;;;;;;;4.60;2.30;;;;;;;8.19;100.00;96887.20;109385;1251;60135;-75
2024/01/04 00:23:11;;;;;;;4.00;2.40;;;;;;;8.18;100.00;96888.96;109500;1251;64573;-74
2024/01/04 00:25:37;;;;;;;5.30;2.00;;;;;;;8.19;100.00;96888.33;109486;1251;59389;-74
2024/01/04 00:28:04;;;;;;;4.30;2.20;;;;;;;8.22;100.00;96886.39;109540;1251;59070;-74
2024/01/04 00:30:31;;;;;;;3.90;1.70;;;;;;;8.27;100.00;96885.47;109574;1251;66980;-74
2024/01/04 00:32:57;;;;;;;2.50;1.50;;;;;;;8.32;100.00;96882.36;109528;1251;61036;-74
2024/01/04 00:35:24;;;;;;;2.40;1.80;;;;;;;8.38;100.00;96881.27;109517;1251;63852;-74
2024/01/04 00:37:51;;;;;;;2.80;1.60;;;;;;;8.44;100.00;96884.98;109414;1251;59028;-74
2024/01/04 00:40:18;;;;;;;2.50;1.60;;;;;;;8.48;100.00;96883.06;109556;1251;59109;-74
2024/01/04 00:42:45;;;;;;;3.00;1.30;;;;;;;8.50;100.00;96882.67;109511;1251;66914;-74
2024/01/04 00:45:11;;;;;;;2.00;1.50;;;;;;;8.50;100.00;96880.03;109463;1251;61565;-74
2024/01/04 00:47:38;;;;;;;2.50;1.30;;;;;;;8.49;100.00;96881.85;109506;1251;65439;-74
2024/01/04 00:50:06;;;;;;;2.50;1.60;;;;;;;8.48;100.00;96884.79;109522;1251;58949;-74
2024/01/04 00:52:32;;;;;;;2.40;1.40;;;;;;;8.47;100.00;96886.27;109288;1251;59114;-75
2024/01/04 00:54:59;;;;;;;2.30;1.50;;;;;;;8.48;100.00;96885.89;109533;1251;65996;-75
2024/01/04 00:57:25;;;;;;;4.20;1.20;;;;;;;8.48;100.00;96887.50;109494;1251;61142;-73
2024/01/04 00:59:52;;;;;;;3.20;1.50;;;;;;;8.48;100.00;96882.64;109299;1251;64746;-74
2024/01/04 01:02:18;;;;;;;3.40;1.20;;;;;;;8.50;100.00;96881.79;109523;1251;59099;-74
2024/01/04 01:04:45;;;;;;;3.60;1.70;;;;;;;8.52;100.00;96878.27;109571;1251;59760;-75
2024/01/04 01:07:12;;;;;;;3.20;1.80;;;;;;;8.51;100.00;96876.37;109539;1251;67106;-74
2024/01/04 01:09:39;;;;;;;3.30;2.00;;;;;;;8.51;100.00;96875.13;109546;1251;61060;-75
2024/01/04 01:12:05;;;;;;;4.60;1.50;;;;;;;8.49;100.00;96873.94;109529;1251;65070;-74
2024/01/04 01:14:32;;;;;;;2.90;1.70;;;;;;;8.48;100.00;96873.86;109538;1251;58984;-74
2024/01/04 01:16:59;;;;;;;1.70;1.30;;;;;;;8.47;100.00;96872.83;109513;1251;59092;-75
2024/01/04 01:19:26;;;;;;;1.80;1.10;;;;;;;8.50;100.00;96873.13;109515;1251;65703;-75
2024/01/04 01:21:52;;;;;;;1.30;1.10;;;;;;;8.53;100.00;96874.60;109376;1251;60046;-75
2024/01/04 01:24:19;;;;;;;2.70;1.20;;;;;;;8.58;100.00;96872.00;109501;1251;64243;-74
2024/01/04 01:26:45;;;;;;;2.50;1.40;;;;;;;8.61;100.00;96873.53;109516;1251;59086;-76
2024/01/04 01:29:12;;;;;;;2.80;1.10;;;;;;;8.61;100.00;96875.28;109518;1251;59790;-76
2024/01/04 01:31:40;;;;;;;1.90;1.10;;;;;;;8.60;100.00;96878.02;109508;1251;67255;-74
2024/01/04 01:34:07;;;;;;;1.50;0.90;;;;;;;8.58;100.00;96877.33;109535;1251;60989;-75
2024/01/04 01:36:34;;;;;;;1.70;1.00;;;;;;;8.54;100.00;96882.23;109549;1251;65072;-73
2024/01/04 01:39:01;;;;;;;2.10;1.00;;;;;;;8.49;100.00;96888.39;109491;1251;59127;-75
2024/01/04 01:41:27;;;;;;;1.30;0.90;;;;;;;8.41;100.00;96890.57;109537;1251;58938;-74
2024/01/04 01:43:54;;;;;;;1.80;1.10;;;;;;;8.32;100.00;96888.67;109561;1251;67336;-75
2024/01/04 01:46:21;;;;;;;2.80;0.70;;;;;;;8.27;100.00;96890.38;109532;1251;60060;-76
2024/01/04 01:48:48;;;;;;;2.40;0.90;;;;;;;8.23;100.00;96888.79;109478;1251;65380;-75
2024/01/04 01:51:15;;;;;;;2.10;0.70;;;;;;;8.20;100.00;96892.63;109489;1251;58950;-75
2024/01/04 01:53:42;;;;;;;1.30;0.80;;;;;;;8.17;100.00;96892.54;109289;1251;58990;-74
2024/01/04 01:56:09;;;;;;;3.60;0.80;;;;;;;8.17;100.00;96887.31;109520;1251;67065;-74
2024/01/04 01:58:36;;;;;;;1.10;0.70;;;;;;;8.15;100.00;96887.27;109515;1251;61076;-73
2024/01/04 02:01:03;;;;;;;0.90;0.80;;;;;;;8.11;100.00;96885.66;109549;1251;65309;-73
2024/01/04 02:03:30;;;;;;;1.80;0.80;;;;;;;8.06;100.00;96884.82;109494;1251;59014;-75
2024/01/04 02:05:56;;;;;;;2.30;0.90;;;;;;;8.01;100.00;96888.30;109372;1251;59197;-74
2024/01/04 02:08:23;;;;;;;2.20;1.00;;;;;;;7.97;100.00;96890.81;109527;1251;65858;-73
2024/01/04 02:10:50;;;;;;;2.20;1.30;;;;;;;7.92;100.00;96888.30;109500;1251;61046;-74
2024/01/04 02:13:16;;;;;;;3.20;1.00;;;;;;;7.87;100.00;96884.13;109533;1251;65114;-74
2024/01/04 02:15:43;;;;;;;1.70;0.70;;;;;;;7.82;100.00;96885.77;109469;1251;59183;-74
2024/01/04 02:18:10;;;;;;;2.50;0.90;;;;;;;7.78;100.00;96881.09;109534;1251;58881;-74
2024/01/04 02:20:36;;;;;;;1.80;0.90;;;;;;;7.73;100.00;96873.52;109521;1251;67178;-73
2024/01/04 02:23:03;;;;;;;1.90;1.00;;;;;;;7.69;100.00;96878.84;109522;1251;61099;-74
2024/01/04 02:25:29;;;;;;;1.50;0.70;;;;;;;7.66;100.00;96875.42;109413;1251;64215;-74
2024/01/04 02:27:56;;;;;;;2.30;0.90;;;;;;;7.61;100.00;96876.50;109518;1251;59262;-74
2024/01/04 02:30:23;;;;;;;1.90;0.70;;;;;;;7.58;100.00;96870.50;109485;1253;58918;-74
2024/01/04 02:32:49;;;;;;;2.70;1.10;;;;;;;7.54;100.00;96863.76;109570;1251;66975;-74
2024/01/04 02:35:16;;;;;;;1.70;1.00;;;;;;;7.50;100.00;96865.31;109529;1251;60078;-74
2024/01/04 02:37:42;;;;;;;1.60;0.90;;;;;;;7.46;100.00;96861.74;109415;1251;64071;-74
2024/01/04 02:40:09;;;;;;;2.20;1.30;;;;;;;7.44;100.00;96857.55;109328;1251;59022;-74
2024/01/04 02:42:36;;;;;;;3.30;1.20;;;;;;;7.41;100.00;96858.48;109580;1251;59194;-75
2024/01/04 02:45:03;;;;;;;3.00;2.30;;;;;;;7.40;100.00;96851.58;109544;1251;67011;-75
2024/01/04 02:47:29;;;;;;;6.80;3.70;;;;;;;7.40;100.00;96848.76;109386;1251;58999;-74
2024/01/04 02:49:56;;;;;;;8.20;5.70;;;;;;;7.38;100.00;96839.65;109521;1251;64044;-74
2024/01/04 02:52:23;;;;;;;6.30;4.40;;;;;;;7.38;100.00;96832.12;109521;1251;58936;-74
2024/01/04 02:54:49;;;;;;;4.60;2.90;;;;;;;7.38;100.00;96829.15;109484;1251;59173;-74
2024/01/04 02:57:16;;;;;;;4.50;3.50;;;;;;;7.36;100.00;96835.08;109546;1252;65809;-75
2024/01/04 02:59:42;;;;;;;3.90;3.40;;;;;;;7.34;100.00;96831.02;109549;1251;58975;-75
2024/01/04 03:02:09;;;;;;;3.70;2.80;;;;;;;7.33;100.00;96827.91;109492;1251;64028;-75
2024/01/04 03:04:40;;;;;;;4.00;2.50;;;;;;;7.32;100.00;96826.26;109514;1251;58929;-75
2024/01/04 03:07:06;;;;;;;4.10;2.40;;;;;;;7.31;100.00;96826.00;109527;1251;59262;-75
2024/01/04 03:09:33;;;;;;;4.10;3.10;;;;;;;7.29;100.00;96824.02;109559;1251;67238;-75
2024/01/04 03:12:00;;;;;;;5.30;2.70;;;;;;;7.29;100.00;96822.69;109513;1251;61119;-75
2024/01/04 03:14:26;;;;;;;2.70;1.50;;;;;;;7.28;100.00;96819.04;109356;1251;64173;-75
2024/01/04 03:16:53;;;;;;;3.00;1.60;;;;;;;7.26;100.00;96812.98;109503;1251;59326;-75
2024/01/04 03:19:19;;;;;;;2.00;1.50;;;;;;;7.25;100.00;96810.28;109532;1251;58918;-74
2024/01/04 03:21:46;;;;;;;3.00;1.30;;;;;;;7.25;100.00;96809.08;109518;1251;67031;-75
2024/01/04 03:24:12;;;;;;;2.00;1.20;;;;;;;7.24;100.00;96811.59;109360;1251;61236;-75
2024/01/04 03:26:39;;;;;;;2.10;1.10;;;;;;;7.24;100.00;96808.05;109499;1251;64105;-73
2024/01/04 03:29:06;;;;;;;1.50;1.10;;;;;;;7.26;100.00;96804.03;109489;1251;59370;-73
2024/01/04 03:31:33;;;;;;;3.10;1.00;;;;;;;7.27;100.00;96802.87;109548;1251;59786;-74
2024/01/04 03:33:59;;;;;;;1.60;0.90;;;;;;;7.28;100.00;96803.52;109563;1251;67087;-74
2024/01/04 03:36:26;;;;;;;0.80;0.80;;;;;;;7.28;100.00;96801.05;109343;1251;59143;-74
2024/01/04 03:38:53;;;;;;;1.30;1.00;;;;;;;7.29;100.00;96803.45;109538;1251;65055;-75
2024/01/04 03:41:19;;;;;;;2.60;1.40;;;;;;;7.29;100.00;96805.71;109360;1251;59065;-73
2024/01/04 03:43:46;;;;;;;2.00;1.10;;;;;;;7.29;100.00;96807.66;109534;1251;59033;-75
2024/01/04 03:46:13;;;;;;;1.90;1.20;;;;;;;7.27;100.00;96808.86;109499;1251;66163;-75
2024/01/04 03:48:40;;;;;;;1.90;1.10;;;;;;;7.26;100.00;96809.65;109558;1251;61011;-73
2024/01/04 03:51:06;;;;;;;2.30;0.90;;;;;;;7.25;100.00;96810.66;109512;1251;64007;-74
2024/01/04 03:53:33;;;;;;;1.30;0.90;;;;;;;7.23;100.00;96808.65;109547;1251;59169;-75
2024/01/04 03:55:59;;;;;;;0.60;0.60;;;;;;;7.22;100.00;96806.45;109534;1251;58926;-74
2024/01/04 03:58:26;;;;;;;1.70;1.10;;;;;;;7.22;100.00;96813.40;109514;1251;65998;-74
2024/01/04 04:00:53;;;;;;;1.50;0.90;;;;;;;7.21;100.00;96813.30;109561;1251;60004;-74
2024/01/04 04:03:19;;;;;;;2.40;0.80;;;;;;;7.20;100.00;96809.51;109515;1251;65220;-74
2024/01/04 04:05:46;;;;;;;1.00;0.70;;;;;;;7.18;100.00;96808.26;109487;1251;58986;-73
2024/01/04 04:08:13;;;;;;;1.00;0.90;;;;;;;7.16;100.00;96811.77;109508;1251;59083;-74
2024/01/04 04:10:40;;;;;;;2.60;0.90;;;;;;;7.15;100.00;96807.96;109557;1251;67063;-73
2024/01/04 04:13:07;;;;;;;1.10;0.90;;;;;;;7.14;100.00;96800.46;109571;1251;61000;-73
2024/01/04 04:15:33;;;;;;;1.60;0.90;;;;;;;7.13;100.00;96794.44;109537;1251;65067;-75
2024/01/04 04:18:00;;;;;;;2.40;1.30;;;;;;;7.11;100.00;96797.58;109500;1251;59240;-75
2024/01/04 04:20:27;;;;;;;2.10;1.20;;;;;;;7.09;100.00;96795.84;109381;1251;60498;-74
2024/01/04 04:22:53;;;;;;;2.20;1.30;;;;;;;7.08;100.00;96793.80;109560;1251;67267;-74
2024/01/04 04:25:20;;;;;;;3.10;1.40;;;;;;;7.08;100.00;96793.75;109538;1251;61026;-74
2024/01/04 04:27:46;;;;;;;3.10;1.30;;;;;;;7.08;100.00;96796.65;109492;1251;65042;-74
2024/01/04 04:30:13;;;;;;;2.00;1.30;;;;;;;7.09;100.00;96793.92;109151;1251;59270;-74
2024/01/04 04:32:40;;;;;;;1.70;1.20;;;;;;;7.10;100.00;96793.95;109529;1251;59029;-73
2024/01/04 04:35:06;;;;;;;2.60;1.40;;;;;;;7.11;100.00;96797.58;109565;1251;66969;-74
2024/01/04 04:37:33;;;;;;;2.10;1.20;;;;;;;7.12;100.00;96797.20;109564;1251;61012;-74
2024/01/04 04:39:59;;;;;;;2.80;1.60;;;;;;;7.14;100.00;96803.00;109520;1251;65224;-73
2024/01/04 04:42:26;;;;;;;4.30;2.00;;;;;;;7.14;100.00;96807.21;109525;1251;58996;-74
2024/01/04 04:44:53;;;;;;;4.50;1.90;;;;;;;7.13;100.00;96803.94;109515;1253;59002;-74
2024/01/04 04:47:19;;;;;;;4.30;1.70;;;;;;;7.14;100.00;96807.71;109495;1251;67080;-73
2024/01/04 04:49:46;;;;;;;3.10;1.30;;;;;;;7.15;100.00;96806.95;109533;1251;61450;-74
2024/01/04 04:52:12;;;;;;;4.40;1.50;;;;;;;7.15;100.00;96801.67;109494;1251;63989;-74
2024/01/04 04:54:39;;;;;;;1.60;1.00;;;;;;;7.14;100.00;96805.40;109534;1251;58991;-72
2024/01/04 04:57:06;;;;;;;1.90;0.90;;;;;;;7.15;100.00;96811.70;109554;1251;59066;-74
2024/01/04 04:59:32;;;;;;;2.10;0.90;;;;;;;7.16;100.00;96817.77;109506;1251;65753;-74
2024/01/04 05:01:59;;;;;;;0.70;0.50;;;;;;;7.17;100.00;96821.91;109433;1253;61054;-75
2024/01/04 05:04:25;;;;;;;2.10;0.70;;;;;;;7.18;100.00;96826.29;109466;1252;65295;-74
2024/01/04 05:06:52;;;;;;;3.80;0.60;;;;;;;7.20;100.00;96831.40;109190;1253;59059;-74
2024/01/04 05:09:18;;;;;;;2.10;0.90;;;;;;;7.21;100.00;96838.20;109425;1252;59024;-73
2024/01/04 05:11:45;;;;;;;0.70;0.70;;;;;;;7.20;100.00;96842.69;109429;1252;67041;-74
2024/01/04 05:14:11;;;;;;;1.40;1.00;;;;;;;7.19;100.00;96848.30;109426;1252;59754;-74
2024/01/04 05:16:38;;;;;;;2.30;0.90;;;;;;;7.16;100.00;96849.55;109380;1252;64032;-73
2024/01/04 05:19:10;;;;;;;2.00;1.00;;;;;;;7.15;100.00;96848.80;109417;1252;58963;-74
2024/01/04 05:21:36;;;;;;;1.10;1.00;;;;;;;7.12;100.00;96852.61;109479;1252;59151;-74
2024/01/04 05:24:03;;;;;;;1.60;0.90;;;;;;;7.08;100.00;96862.24;109432;1252;66227;-74
2024/01/04 05:26:30;;;;;;;3.60;1.20;;;;;;;7.07;100.00;96861.55;109461;1252;61215;-74
2024/01/04 05:28:57;;;;;;;1.10;0.80;;;;;;;7.05;100.00;96861.15;109439;1252;64970;-74
2024/01/04 05:31:25;;;;;;;1.20;1.00;;;;;;;7.02;100.00;96869.15;109251;1252;58956;-74
2024/01/04 05:33:52;;;;;;;1.70;1.00;;;;;;;6.99;100.00;96874.32;109451;1252;58959;-74
2024/01/04 05:36:19;;;;;;;2.40;1.20;;;;;;;6.97;100.00;96878.58;109416;1252;67093;-74
2024/01/04 05:38:45;;;;;;;2.30;2.10;;;;;;;6.96;100.00;96882.02;109482;1252;60921;-75
2024/01/04 05:41:12;;;;;;;3.20;2.40;;;;;;;6.95;100.00;96884.73;109416;1252;65065;-74
2024/01/04 05:43:38;;;;;;;3.70;3.30;;;;;;;6.95;100.00;96890.05;109395;1252;58984;-75
2024/01/04 05:46:05;;;;;;;3.80;2.40;;;;;;;6.94;100.00;96894.55;109448;1252;59022;-73
2024/01/04 05:48:32;;;;;;;2.90;2.10;;;;;;;6.93;100.00;96896.40;109491;1252;67300;-74
2024/01/04 05:50:59;;;;;;;2.80;1.80;;;;;;;6.94;100.00;96891.54;109443;1252;60050;-75
2024/01/04 05:53:26;;;;;;;1.80;1.50;;;;;;;6.94;100.00;96891.21;109412;1252;64232;-73
2024/01/04 05:55:53;;;;;;;2.70;2.10;;;;;;;6.93;100.00;96894.13;109429;1252;58993;-74
2024/01/04 05:58:19;;;;;;;1.50;1.20;;;;;;;6.91;100.00;96897.96;109470;1252;59211;-74
2024/01/04 06:00:47;;;;;;;3.00;1.40;;;;;;;6.90;100.00;96899.17;109435;1252;66993;-73
2024/01/04 06:03:14;;;;;;;5.00;2.70;;;;;;;6.88;100.00;96900.19;109413;1252;61073;-73
2024/01/04 06:05:40;;;;;;;2.60;1.90;;;;;;;6.87;100.00;96899.20;109403;1252;65013;-73
2024/01/04 06:08:07;;;;;;;2.90;1.80;;;;;;;6.87;100.00;96902.59;109401;1252;59057;-73
2024/01/04 06:10:34;;;;;;;3.20;2.00;;;;;;;6.86;100.00;96901.67;109451;1252;58862;-73
2024/01/04 06:13:01;;;;;;;4.00;2.40;;;;;;;6.84;100.00;96904.45;109418;1252;67010;-73
2024/01/04 06:15:28;;;;;;;5.00;3.20;;;;;;;6.83;100.00;96904.02;109428;1252;60709;-73
2024/01/04 06:17:55;;;;;;;4.10;3.40;;;;;;;6.81;100.00;96903.79;109412;1252;64034;-74
2024/01/04 06:20:21;;;;;;;6.20;5.00;;;;;;;6.80;100.00;96906.91;109430;1252;58940;-75
2024/01/04 06:22:48;;;;;;;5.90;5.30;;;;;;;6.79;100.00;96905.71;109388;1252;59427;-74
2024/01/04 06:25:14;;;;;;;5.40;4.90;;;;;;;6.80;100.00;96909.20;109465;1252;66074;-74
2024/01/04 06:27:41;;;;;;;6.10;5.50;;;;;;;6.81;100.00;96914.19;109427;1252;60758;-74
2024/01/04 06:30:08;;;;;;;6.40;5.90;;;;;;;6.82;100.00;96911.84;109387;1252;64062;-74
2024/01/04 06:32:35;;;;;;;5.80;5.20;;;;;;;6.83;100.00;96915.15;109415;1252;59194;-73
2024/01/04 06:35:02;;;;;;;6.30;3.50;;;;;;;6.82;100.00;96916.60;109473;1252;58932;-74
2024/01/04 06:37:28;;;;;;;3.30;3.00;;;;;;;6.81;100.00;96917.90;109422;1252;67150;-74
2024/01/04 06:39:55;;;;;;;2.80;2.50;;;;;;;6.81;100.00;96919.70;109448;1252;60931;-74
2024/01/04 06:42:22;;;;;;;3.50;2.20;;;;;;;6.81;100.00;96918.64;109394;1252;64229;-74
2024/01/04 06:44:48;;;;;;;2.10;1.30;;;;;;;6.80;100.00;96920.48;109404;1252;59060;-74
2024/01/04 06:47:15;;;;;;;2.20;1.10;;;;;;;6.80;100.00;96922.90;109442;1252;58865;-74
2024/01/04 06:49:42;;;;;;;2.90;1.30;;;;;;;6.80;100.00;96920.48;109405;1252;66016;-74
2024/01/04 06:52:08;;;;;;;1.40;0.90;;;;;;;6.80;100.00;96922.27;109439;1252;60073;-74
2024/01/04 06:54:35;;;;;;;3.10;1.20;;;;;;;6.79;100.00;96920.34;109450;1252;65762;-74
2024/01/04 06:57:06;;;;;;;1.50;1.00;;;;;;;6.79;100.00;96917.71;109450;1252;59047;-73
2024/01/04 06:59:34;;;;;;;2.20;1.10;;;;;;;6.78;100.00;96917.46;109019;1252;58923;-74
2024/01/04 07:02:00;;;;;;;3.80;1.50;;;;;;;6.77;100.00;96918.73;109451;1252;67072;-73
2024/01/04 07:04:27;;;;;;;3.00;1.20;;;;;;;6.77;100.00;96921.45;109100;1252;59785;-75
2024/01/04 07:06:53;;;;;;;2.50;1.70;;;;;;;6.78;100.00;96919.08;109409;1252;64020;-75
2024/01/04 07:09:20;;;;;;;3.80;1.70;;;;;;;6.80;100.00;96922.80;109443;1256;58962;-75
2024/01/04 07:11:47;;;;;;;2.70;1.40;;;;;;;6.81;100.00;96925.36;109449;1252;59021;-75
2024/01/04 07:14:13;;;;;;;2.40;1.70;;;;;;;6.82;100.00;96923.86;109430;1252;67176;-75
2024/01/04 07:16:44;;;;;;;2.80;1.80;;;;;;;6.84;100.00;96925.09;109449;1252;60290;-75
2024/01/04 07:19:10;;;;;;;2.60;1.80;;;;;;;6.85;100.00;96922.32;109453;1252;65113;-75
2024/01/04 07:21:37;;;;;;;5.60;2.00;;;;;;;6.87;100.00;96919.86;108671;1252;1002391;-74
2024/01/04 07:24:04;;;;;;;2.30;1.40;;;;;;;6.92;100.00;96922.10;109440;1252;59048;-74
2024/01/04 07:26:31;;;;;;;3.20;1.70;;;;;;;6.96;100.00;96920.02;109443;1252;67130;-75
2024/01/04 07:28:57;;;;;;;2.60;1.70;;;;;;;6.98;100.00;96916.29;109446;1252;61197;-73
2024/01/04 07:31:24;;;;;;;1.90;1.40;;;;;;;7.00;100.00;96920.16;109460;1252;65309;-74
2024/01/04 07:33:50;;;;;;;2.90;1.70;;;;;;;7.04;100.00;96922.64;109390;1252;58942;-74
2024/01/04 07:36:17;;;;;;;4.30;1.60;;;;;;;7.08;100.00;96920.06;109463;1252;59848;-75
2024/01/04 07:38:44;;;;;;;2.10;1.30;;;;;;;7.11;100.00;96920.11;109444;1252;66277;-75
2024/01/04 07:41:11;;;;;;;1.90;1.20;;;;;;;7.15;100.00;96922.03;109470;1252;60133;-74
2024/01/04 07:43:37;;;;;;;2.30;1.40;;;;;;;7.21;100.00;96919.08;109411;1252;64028;-75
2024/01/04 07:46:04;;;;;;;1.30;0.80;;;;;;;7.27;100.00;96919.45;109470;1252;59228;-75
2024/01/04 07:48:30;;;;;;;1.90;1.10;;;;;;;7.31;100.00;96923.72;109441;1252;58981;-75
2024/01/04 07:50:57;;;;;;;2.30;1.30;;;;;;;7.34;100.00;96923.09;109447;1252;66004;-74
2024/01/04 07:53:23;;;;;;;1.80;1.10;;;;;;;7.39;100.00;96924.78;109427;1252;61249;-75
2024/01/04 07:55:50;;;;;;;2.10;1.10;;;;;;;7.43;100.00;96929.34;109405;1252;64137;-77
2024/01/04 07:58:16;;;;;;;1.10;0.90;;;;;;;7.48;100.00;96934.02;109361;1252;59634;-74
2024/01/04 08:00:43;;;;;;;1.50;0.90;;;;;;;7.52;100.00;96936.48;109431;1252;59056;-76
2024/01/04 08:03:10;;;;;;;2.20;1.10;;;;;;;7.56;100.00;96942.92;109447;1252;67024;-74
2024/01/04 08:05:37;;;;;;;1.20;0.90;;;;;;;7.58;100.00;96943.74;109428;1252;59925;-76
2024/01/04 08:08:04;;;;;;;1.50;0.90;;;;;;;7.61;100.00;96944.52;109449;1252;65075;-73
2024/01/04 08:10:30;;;;;;;2.50;0.90;;;;;;;7.66;100.00;96950.35;109453;1252;59060;-75
2024/01/04 08:12:57;;;;;;;3.80;1.10;;;;;;;7.70;100.00;96948.17;109418;1252;59029;-75
2024/01/04 08:15:23;;;;;;;2.70;1.00;;;;;;;7.75;100.00;96945.67;109330;1252;65952;-74
2024/01/04 08:17:50;;;;;;;1.50;1.10;;;;;;;7.79;100.00;96949.17;109455;1252;61208;-74
2024/01/04 08:20:18;;;;;;;1.50;1.00;;;;;;;7.82;100.00;96952.63;109424;1252;65013;-74
2024/01/04 08:22:44;;;;;;;2.50;1.30;;;;;;;7.84;100.00;96957.23;109427;1252;59377;-75
2024/01/04 08:25:11;;;;;;;1.80;1.20;;;;;;;7.86;100.00;96959.16;109388;1252;59078;-76
2024/01/04 08:27:38;;;;;;;3.10;1.30;;;;;;;7.89;100.00;96959.25;109423;1252;66060;-73
2024/01/04 08:30:05;;;;;;;2.60;1.20;;;;;;;7.91;100.00;96958.87;109450;1252;59856;-74
2024/01/04 08:32:31;;;;;;;2.60;1.50;;;;;;;7.94;100.00;96963.37;109438;1252;63894;-73
2024/01/04 08:34:58;;;;;;;3.10;1.70;;;;;;;7.98;100.00;96967.48;109420;1252;58998;-74
2024/01/04 08:37:25;;;;;;;2.40;1.00;;;;;;;8.00;100.00;96966.40;109468;1253;59251;-74
2024/01/04 08:39:52;;;;;;;2.00;1.40;;;;;;;8.03;100.00;96968.08;109471;1252;67056;-74
2024/01/04 08:42:19;;;;;;;2.20;1.40;;;;;;;8.06;100.00;96965.00;109460;1252;61350;-75
2024/01/04 08:44:46;;;;;;;4.00;1.60;;;;;;;8.08;100.00;96968.48;109416;1252;65227;-75
2024/01/04 08:47:13;;;;;;;1.60;1.10;;;;;;;8.11;100.00;96972.68;109425;1252;59029;-75
2024/01/04 08:49:39;;;;;;;2.20;1.30;;;;;;;8.15;100.00;96972.46;109393;1252;59009;-73
2024/01/04 08:52:06;;;;;;;2.10;1.60;;;;;;;8.20;100.00;96968.55;109520;1252;67059;-74
2024/01/04 08:54:33;;;;;;;2.10;1.00;;;;;;;8.24;100.00;96966.05;109434;1252;60047;-74
2024/01/04 08:56:59;;;;;;;1.80;1.20;;;;;;;8.27;100.00;96971.24;109426;1252;65005;-73
2024/01/04 08:59:26;;;;;;;2.60;1.10;;;;;;;8.34;100.00;96972.90;109461;1252;58958;-73
2024/01/04 09:01:52;;;;;;;1.80;1.20;;;;;;;8.43;100.00;96972.69;109430;1252;59088;-74
2024/01/04 09:04:20;;;;;;;2.50;1.40;;;;;;;8.52;100.00;96975.08;109451;1252;67142;-79
2024/01/04 09:06:47;;;;;;;2.00;1.10;;;;;;;8.64;100.00;96971.82;109411;1252;59286;-79
2024/01/04 09:09:13;;;;;;;2.20;1.10;;;;;;;8.73;100.00;96968.49;109444;1252;64068;-78
2024/01/04 09:11:41;;;;;;;2.40;1.20;;;;;;;8.78;100.00;96975.52;109312;1252;58996;-79
2024/01/04 09:14:11;;;;;;;3.60;1.50;;;;;;;8.90;100.00;96974.96;109438;1252;59131;-78
2024/01/04 09:16:39;;;;;;;4.20;1.40;;;;;;;9.04;100.00;96973.98;109235;1252;65927;-78
2024/01/04 09:19:06;;;;;;;1.90;1.00;;;;;;;9.18;100.00;96975.27;109499;1252;61338;-78
2024/01/04 09:21:33;;;;;;;2.40;1.50;;;;;;;9.35;100.00;96976.42;109457;1252;65000;-78
2024/01/04 09:23:59;;;;;;;2.90;1.00;;;;;;;9.45;100.00;96975.65;109433;1252;59226;-78
2024/01/04 09:26:26;;;;;;;1.90;1.00;;;;;;;9.50;100.00;96975.02;109509;1252;58978;-78
2024/01/04 09:28:53;;;;;;;1.60;1.00;;;;;;;9.55;100.00;96984.59;109464;1252;67334;-78
2024/01/04 09:31:20;;;;;;;2.10;0.90;;;;;;;9.58;100.00;96984.83;109511;1252;61303;-77
2024/01/04 09:33:46;;;;;;;2.00;0.90;;;;;;;9.61;100.00;96988.30;109436;1252;64210;-77
2024/01/04 09:36:13;;;;;;;2.00;0.90;;;;;;;9.63;100.00;96987.91;109427;1252;59054;-77
2024/01/04 09:38:39;;;;;;;2.30;0.80;;;;;;;9.62;100.00;96985.45;109386;1252;59392;-77
2024/01/04 09:41:22;;;;;;;2.80;0.90;;;;;;;9.58;100.00;96983.30;109474;1252;67014;-77
2024/01/04 09:43:54;;;;;;;1.50;1.10;;;;;;;9.48;100.00;96991.66;109448;1252;61065;-77
2024/01/04 09:46:24;;;;;;;1.70;1.10;;;;;;;9.39;100.00;96993.58;109435;1252;64250;-78
2024/01/04 09:48:59;;;;;;;1.10;0.70;;;;;;;9.30;100.00;96999.27;109369;1252;59461;-77
2024/01/04 09:51:33;;;;;;;1.00;0.70;;;;;;;9.21;100.00;97000.91;109392;1252;58964;-78
2024/01/04 09:54:03;;;;;;;1.80;1.00;;;;;;;9.13;100.00;97005.77;109411;1252;67118;-78
2024/01/04 09:56:32;;;;;;;2.20;0.90;;;;;;;9.00;100.00;97005.87;109414;1252;61441;-78
2024/01/04 09:58:59;;;;;;;1.60;0.80;;;;;;;8.87;100.00;97005.83;109408;1252;65228;-78
2024/01/04 10:01:31;;;;;;;1.60;0.90;;;;;;;8.74;100.00;97006.81;109434;1253;59010;-77
2024/01/04 10:04:12;;;;;;;2.40;1.40;;;;;;;8.61;100.00;97005.70;109475;1252;58940;-78
2024/01/04 10:06:43;;;;;;;1.40;1.00;;;;;;;8.47;100.00;97007.73;109235;1253;67063;-78
2024/01/04 10:09:26;;;;;;;2.30;1.10;;;;;;;8.34;100.00;97005.11;109438;1252;61153;-78
2024/01/04 10:12:02;;;;;;;2.30;1.10;;;;;;;8.22;100.00;97003.59;109367;1252;65155;-78
2024/01/04 10:14:30;;;;;;;2.10;1.20;;;;;;;8.11;100.00;96999.74;109434;1252;59277;-77
2024/01/04 10:16:57;;;;;;;2.50;1.40;;;;;;;8.07;100.00;96997.64;109431;1253;59016;-78
2024/01/04 10:19:25;;;;;;;3.00;1.50;;;;;;;8.08;100.00;96995.44;109376;1252;67178;-77
2024/01/04 10:21:52;;;;;;;3.60;2.00;;;;;;;8.13;100.00;96990.02;109226;1252;60633;-78
2024/01/04 10:24:23;;;;;;;4.10;2.80;;;;;;;8.19;100.00;96989.50;109381;1252;64067;-78
2024/01/04 10:26:55;;;;;;;3.40;2.40;;;;;;;8.25;100.00;96985.55;109101;1252;59017;-78
2024/01/04 10:29:23;;;;;;;3.70;2.40;;;;;;;8.33;100.00;96982.34;109446;1253;59027;-77
2024/01/04 10:31:57;;;;;;;3.60;2.10;;;;;;;8.43;100.00;96982.77;109434;1252;65976;-78
2024/01/04 10:34:25;;;;;;;2.70;1.80;;;;;;;8.50;100.00;96985.30;109429;1253;61027;-78
2024/01/04 10:36:52;;;;;;;2.60;1.60;;;;;;;8.56;100.00;96989.54;109433;1252;73259;-77
2024/01/04 10:39:22;;;;;;;1.90;1.50;;;;;;;8.61;100.00;96990.32;109135;1252;59198;-77
2024/01/04 10:41:57;;;;;;;2.50;1.20;;;;;;;8.66;100.00;96989.69;109446;1256;58891;-78
2024/01/04 10:44:23;;;;;;;2.40;1.70;;;;;;;8.72;100.00;96991.64;109440;1252;65990;-77
2024/01/04 10:46:54;;;;;;;2.40;1.50;;;;;;;8.80;100.00;96998.88;109489;1252;61115;-78
2024/01/04 10:49:23;;;;;;;1.20;0.70;;;;;;;8.86;100.00;97001.14;109426;1252;64987;-78
2024/01/04 10:51:57;;;;;;;1.50;1.00;;;;;;;8.91;100.00;96997.73;109436;1252;59027;-78
2024/01/04 10:54:31;;;;;;;1.50;1.00;;;;;;;8.96;100.00;97004.48;109395;1252;59115;-78
2024/01/04 10:56:59;;;;;;;2.40;0.90;;;;;;;8.97;100.00;97009.83;109452;1252;67069;-78
2024/01/04 10:59:30;;;;;;;1.60;0.80;;;;;;;8.93;100.00;97005.30;109486;1252;59846;-79
2024/01/04 11:01:58;;;;;;;1.10;0.80;;;;;;;8.83;100.00;97004.63;109432;1252;65023;-78
2024/01/04 11:04:26;;;;;;;0.90;0.70;;;;;;;8.67;100.00;97007.27;109441;1252;58969;-78
2024/01/04 11:06:53;;;;;;;0.80;0.80;;;;;;;8.53;100.00;97010.47;109434;1252;59137;-78
2024/01/04 11:09:20;;;;;;;2.60;0.90;;;;;;;8.43;100.00;97010.66;109428;1252;66231;-77
2024/01/04 11:11:52;;;;;;;2.10;0.60;;;;;;;8.32;100.00;97008.52;109449;1252;60056;-77
2024/01/04 11:14:22;;;;;;;0.80;0.60;;;;;;;8.19;100.00;97010.73;109390;1252;63768;-77
2024/01/04 11:17:24;;;;;;;0.80;0.70;;;;;;;8.11;100.00;97005.77;109461;1252;58941;-77
2024/01/04 11:20:29;;;;;;;2.10;1.00;;;;;;;8.09;100.00;97001.00;108964;1259;59099;-78
2024/01/04 11:23:10;;;;;;;1.10;0.80;;;;;;;8.12;100.00;97000.14;108616;1264;66226;-78
2024/01/04 11:26:12;;;;;;;1.70;1.30;;;;;;;8.17;100.00;97000.98;108625;1265;60163;-78